sensor_id;sensor_type;location;lat;lon;timestamp;P1;durP1;ratioP1;P2;durP2;ratioP2
74102;SDS011;62853;46.166;3.640;2022-12-10T00:01:53;43.67;;;24.65;;
74102;SDS011;62853;46.166;3.640;2022-12-10T00:04:18;47.13;;;25.13;;
74102;SDS011;62853;46.166;3.640;2022-12-10T00:06:44;50.58;;;25.77;;
74102;SDS011;62853;46.166;3.640;2022-12-10T00:09:11;49.70;;;26.15;;
74102;SDS011;62853;46.166;3.640;2022-12-10T00:11:41;42.55;;;23.10;;
74102;SDS011;62853;46.166;3.640;2022-12-10T00:14:06;45.83;;;24.13;;
74102;SDS011;62853;46.166;3.640;2022-12-10T00:16:32;48.42;;;26.15;;
74102;SDS011;62853;46.166;3.640;2022-12-10T00:18:58;52.67;;;27.20;;
74102;SDS011;62853;46.166;3.640;2022-12-10T00:21:25;49.05;;;25.52;;
74102;SDS011;62853;46.166;3.640;2022-12-10T00:23:53;46.92;;;24.88;;
74102;SDS011;62853;46.166;3.640;2022-12-10T00:26:20;47.35;;;24.90;;
74102;SDS011;62853;46.166;3.640;2022-12-10T00:28:47;48.88;;;25.77;;
74102;SDS011;62853;46.166;3.640;2022-12-10T00:31:18;49.20;;;26.25;;
74102;SDS011;62853;46.166;3.640;2022-12-10T00:33:46;52.22;;;27.20;;
74102;SDS011;62853;46.166;3.640;2022-12-10T00:36:23;55.38;;;27.05;;
74102;SDS011;62853;46.166;3.640;2022-12-10T00:38:50;51.90;;;27.40;;
74102;SDS011;62853;46.166;3.640;2022-12-10T00:41:16;52.97;;;26.67;;
74102;SDS011;62853;46.166;3.640;2022-12-10T00:43:43;53.30;;;27.80;;
74102;SDS011;62853;46.166;3.640;2022-12-10T00:46:09;49.45;;;25.02;;
74102;SDS011;62853;46.166;3.640;2022-12-10T00:48:35;50.58;;;25.70;;
74102;SDS011;62853;46.166;3.640;2022-12-10T00:51:03;49.33;;;25.65;;
74102;SDS011;62853;46.166;3.640;2022-12-10T00:53:31;49.38;;;26.85;;
74102;SDS011;62853;46.166;3.640;2022-12-10T00:55:58;50.08;;;26.80;;
74102;SDS011;62853;46.166;3.640;2022-12-10T00:58:26;52.72;;;26.38;;
74102;SDS011;62853;46.166;3.640;2022-12-10T01:00:52;65.15;;;30.17;;
74102;SDS011;62853;46.166;3.640;2022-12-10T01:03:18;53.15;;;27.25;;
74102;SDS011;62853;46.166;3.640;2022-12-10T01:05:43;52.92;;;28.10;;
74102;SDS011;62853;46.166;3.640;2022-12-10T01:08:09;48.00;;;23.75;;
74102;SDS011;62853;46.166;3.640;2022-12-10T01:10:34;51.55;;;26.90;;
74102;SDS011;62853;46.166;3.640;2022-12-10T01:12:59;51.25;;;26.38;;
74102;SDS011;62853;46.166;3.640;2022-12-10T01:15:25;58.33;;;29.92;;
74102;SDS011;62853;46.166;3.640;2022-12-10T01:17:50;54.45;;;28.52;;
74102;SDS011;62853;46.166;3.640;2022-12-10T01:20:16;50.50;;;25.33;;
74102;SDS011;62853;46.166;3.640;2022-12-10T01:22:41;47.83;;;25.92;;
74102;SDS011;62853;46.166;3.640;2022-12-10T01:25:06;53.75;;;27.48;;
74102;SDS011;62853;46.166;3.640;2022-12-10T01:27:32;65.50;;;33.47;;
74102;SDS011;62853;46.166;3.640;2022-12-10T01:29:57;62.90;;;30.58;;
74102;SDS011;62853;46.166;3.640;2022-12-10T01:32:23;66.18;;;31.10;;
74102;SDS011;62853;46.166;3.640;2022-12-10T01:34:48;66.22;;;33.03;;
74102;SDS011;62853;46.166;3.640;2022-12-10T01:37:13;57.90;;;28.50;;
74102;SDS011;62853;46.166;3.640;2022-12-10T01:39:39;73.22;;;34.65;;
74102;SDS011;62853;46.166;3.640;2022-12-10T01:42:04;61.28;;;29.25;;
74102;SDS011;62853;46.166;3.640;2022-12-10T01:46:57;56.35;;;27.70;;
74102;SDS011;62853;46.166;3.640;2022-12-10T01:49:35;53.75;;;26.85;;
74102;SDS011;62853;46.166;3.640;2022-12-10T01:52:03;60.80;;;28.88;;
74102;SDS011;62853;46.166;3.640;2022-12-10T01:54:35;61.67;;;30.33;;
74102;SDS011;62853;46.166;3.640;2022-12-10T01:57:10;68.60;;;32.70;;
74102;SDS011;62853;46.166;3.640;2022-12-10T01:59:39;61.88;;;30.58;;
74102;SDS011;62853;46.166;3.640;2022-12-10T02:02:08;71.90;;;35.95;;
74102;SDS011;62853;46.166;3.640;2022-12-10T02:04:55;62.80;;;30.75;;
74102;SDS011;62853;46.166;3.640;2022-12-10T02:09:58;59.28;;;30.02;;
74102;SDS011;62853;46.166;3.640;2022-12-10T02:12:37;73.03;;;35.20;;
74102;SDS011;62853;46.166;3.640;2022-12-10T02:15:28;67.22;;;32.50;;
74102;SDS011;62853;46.166;3.640;2022-12-10T02:17:59;72.38;;;33.45;;
74102;SDS011;62853;46.166;3.640;2022-12-10T02:23:22;62.60;;;29.50;;
74102;SDS011;62853;46.166;3.640;2022-12-10T02:31:29;51.70;;;25.45;;
74102;SDS011;62853;46.166;3.640;2022-12-10T02:33:58;60.83;;;28.77;;
74102;SDS011;62853;46.166;3.640;2022-12-10T02:36:27;69.03;;;33.17;;
74102;SDS011;62853;46.166;3.640;2022-12-10T02:38:57;67.07;;;31.73;;
74102;SDS011;62853;46.166;3.640;2022-12-10T02:41:27;71.65;;;35.53;;
74102;SDS011;62853;46.166;3.640;2022-12-10T02:43:58;66.13;;;30.08;;
74102;SDS011;62853;46.166;3.640;2022-12-10T02:46:25;54.08;;;27.45;;
74102;SDS011;62853;46.166;3.640;2022-12-10T02:48:56;55.33;;;27.73;;
74102;SDS011;62853;46.166;3.640;2022-12-10T02:51:23;73.32;;;34.15;;
74102;SDS011;62853;46.166;3.640;2022-12-10T02:53:58;68.20;;;32.22;;
74102;SDS011;62853;46.166;3.640;2022-12-10T02:59:12;65.75;;;31.20;;
74102;SDS011;62853;46.166;3.640;2022-12-10T03:01:53;60.13;;;30.25;;
74102;SDS011;62853;46.166;3.640;2022-12-10T03:07:25;58.97;;;27.85;;
74102;SDS011;62853;46.166;3.640;2022-12-10T03:10:44;63.72;;;28.75;;
74102;SDS011;62853;46.166;3.640;2022-12-10T03:12:58;64.20;;;30.70;;
74102;SDS011;62853;46.166;3.640;2022-12-10T03:15:25;56.67;;;26.65;;
74102;SDS011;62853;46.166;3.640;2022-12-10T03:17:53;61.70;;;28.30;;
74102;SDS011;62853;46.166;3.640;2022-12-10T03:20:20;56.53;;;27.30;;
74102;SDS011;62853;46.166;3.640;2022-12-10T03:22:48;56.10;;;27.25;;
74102;SDS011;62853;46.166;3.640;2022-12-10T03:25:15;53.63;;;25.20;;
74102;SDS011;62853;46.166;3.640;2022-12-10T03:27:44;63.38;;;30.20;;
74102;SDS011;62853;46.166;3.640;2022-12-10T03:30:14;56.20;;;27.80;;
74102;SDS011;62853;46.166;3.640;2022-12-10T03:32:40;69.20;;;31.13;;
74102;SDS011;62853;46.166;3.640;2022-12-10T03:35:08;61.38;;;27.55;;
74102;SDS011;62853;46.166;3.640;2022-12-10T03:37:34;59.20;;;27.67;;
74102;SDS011;62853;46.166;3.640;2022-12-10T03:40:00;60.53;;;27.98;;
74102;SDS011;62853;46.166;3.640;2022-12-10T03:42:28;59.42;;;28.13;;
74102;SDS011;62853;46.166;3.640;2022-12-10T03:44:53;59.42;;;27.88;;
74102;SDS011;62853;46.166;3.640;2022-12-10T03:47:19;59.63;;;29.08;;
74102;SDS011;62853;46.166;3.640;2022-12-10T03:49:45;64.53;;;28.70;;
74102;SDS011;62853;46.166;3.640;2022-12-10T03:52:11;61.00;;;28.40;;
74102;SDS011;62853;46.166;3.640;2022-12-10T03:54:37;65.10;;;29.45;;
74102;SDS011;62853;46.166;3.640;2022-12-10T03:57:02;62.40;;;28.60;;
74102;SDS011;62853;46.166;3.640;2022-12-10T03:59:28;66.15;;;28.10;;
74102;SDS011;62853;46.166;3.640;2022-12-10T04:01:53;64.07;;;29.73;;
74102;SDS011;62853;46.166;3.640;2022-12-10T04:04:18;61.08;;;27.30;;
74102;SDS011;62853;46.166;3.640;2022-12-10T04:06:44;59.72;;;27.25;;
74102;SDS011;62853;46.166;3.640;2022-12-10T04:09:10;63.33;;;29.50;;
74102;SDS011;62853;46.166;3.640;2022-12-10T04:11:37;66.03;;;30.90;;
74102;SDS011;62853;46.166;3.640;2022-12-10T04:14:02;63.17;;;29.00;;
74102;SDS011;62853;46.166;3.640;2022-12-10T04:16:46;56.60;;;26.05;;
74102;SDS011;62853;46.166;3.640;2022-12-10T04:19:13;61.35;;;27.80;;
74102;SDS011;62853;46.166;3.640;2022-12-10T04:21:40;56.90;;;25.85;;
74102;SDS011;62853;46.166;3.640;2022-12-10T04:24:46;55.72;;;25.98;;
74102;SDS011;62853;46.166;3.640;2022-12-10T04:27:30;63.58;;;28.80;;
74102;SDS011;62853;46.166;3.640;2022-12-10T04:29:58;73.82;;;34.53;;
74102;SDS011;62853;46.166;3.640;2022-12-10T04:32:25;65.82;;;30.17;;
74102;SDS011;62853;46.166;3.640;2022-12-10T04:34:53;63.58;;;28.85;;
74102;SDS011;62853;46.166;3.640;2022-12-10T04:37:19;62.88;;;28.75;;
74102;SDS011;62853;46.166;3.640;2022-12-10T04:39:46;71.97;;;32.92;;
74102;SDS011;62853;46.166;3.640;2022-12-10T04:42:12;67.28;;;30.98;;
74102;SDS011;62853;46.166;3.640;2022-12-10T04:44:38;69.40;;;30.45;;
74102;SDS011;62853;46.166;3.640;2022-12-10T04:47:04;67.28;;;32.25;;
74102;SDS011;62853;46.166;3.640;2022-12-10T04:49:31;69.45;;;31.33;;
74102;SDS011;62853;46.166;3.640;2022-12-10T04:51:56;63.03;;;28.67;;
74102;SDS011;62853;46.166;3.640;2022-12-10T04:54:22;54.65;;;25.30;;
74102;SDS011;62853;46.166;3.640;2022-12-10T04:56:48;63.80;;;28.38;;
74102;SDS011;62853;46.166;3.640;2022-12-10T04:59:13;62.55;;;28.55;;
74102;SDS011;62853;46.166;3.640;2022-12-10T05:01:39;77.03;;;35.30;;
74102;SDS011;62853;46.166;3.640;2022-12-10T05:04:05;64.03;;;29.48;;
74102;SDS011;62853;46.166;3.640;2022-12-10T05:06:33;59.22;;;27.08;;
74102;SDS011;62853;46.166;3.640;2022-12-10T05:08:59;62.55;;;27.92;;
74102;SDS011;62853;46.166;3.640;2022-12-10T05:11:25;53.65;;;25.13;;
74102;SDS011;62853;46.166;3.640;2022-12-10T05:13:52;77.95;;;32.00;;
74102;SDS011;62853;46.166;3.640;2022-12-10T05:16:18;68.68;;;30.05;;
74102;SDS011;62853;46.166;3.640;2022-12-10T05:18:45;61.13;;;28.17;;
74102;SDS011;62853;46.166;3.640;2022-12-10T05:21:11;56.00;;;25.95;;
74102;SDS011;62853;46.166;3.640;2022-12-10T05:23:40;65.78;;;28.63;;
74102;SDS011;62853;46.166;3.640;2022-12-10T05:26:08;76.00;;;34.88;;
74102;SDS011;62853;46.166;3.640;2022-12-10T05:28:37;70.60;;;31.20;;
74102;SDS011;62853;46.166;3.640;2022-12-10T05:33:40;60.80;;;27.92;;
74102;SDS011;62853;46.166;3.640;2022-12-10T05:36:05;69.85;;;32.60;;
74102;SDS011;62853;46.166;3.640;2022-12-10T05:38:32;63.97;;;28.80;;
74102;SDS011;62853;46.166;3.640;2022-12-10T05:41:05;67.60;;;29.77;;
74102;SDS011;62853;46.166;3.640;2022-12-10T05:43:33;64.32;;;29.23;;
74102;SDS011;62853;46.166;3.640;2022-12-10T05:46:00;62.35;;;28.00;;
74102;SDS011;62853;46.166;3.640;2022-12-10T05:48:26;64.32;;;30.00;;
74102;SDS011;62853;46.166;3.640;2022-12-10T05:50:51;70.70;;;31.85;;
74102;SDS011;62853;46.166;3.640;2022-12-10T05:53:17;57.85;;;27.33;;
74102;SDS011;62853;46.166;3.640;2022-12-10T05:55:43;60.90;;;28.05;;
74102;SDS011;62853;46.166;3.640;2022-12-10T05:58:08;70.80;;;30.98;;
74102;SDS011;62853;46.166;3.640;2022-12-10T06:00:34;63.38;;;28.35;;
74102;SDS011;62853;46.166;3.640;2022-12-10T06:02:59;60.28;;;27.55;;
74102;SDS011;62853;46.166;3.640;2022-12-10T06:05:25;65.18;;;30.50;;
74102;SDS011;62853;46.166;3.640;2022-12-10T06:07:50;91.85;;;40.28;;
74102;SDS011;62853;46.166;3.640;2022-12-10T06:10:15;73.95;;;31.98;;
74102;SDS011;62853;46.166;3.640;2022-12-10T06:12:41;66.22;;;27.77;;
74102;SDS011;62853;46.166;3.640;2022-12-10T06:15:06;59.33;;;26.85;;
74102;SDS011;62853;46.166;3.640;2022-12-10T06:17:32;61.20;;;26.88;;
74102;SDS011;62853;46.166;3.640;2022-12-10T06:19:57;64.18;;;27.83;;
74102;SDS011;62853;46.166;3.640;2022-12-10T06:22:23;85.03;;;35.35;;
74102;SDS011;62853;46.166;3.640;2022-12-10T06:24:48;71.05;;;31.67;;
74102;SDS011;62853;46.166;3.640;2022-12-10T06:27:14;75.35;;;32.78;;
74102;SDS011;62853;46.166;3.640;2022-12-10T06:29:39;59.65;;;27.95;;
74102;SDS011;62853;46.166;3.640;2022-12-10T06:32:05;70.03;;;31.15;;
74102;SDS011;62853;46.166;3.640;2022-12-10T06:34:30;64.25;;;28.27;;
74102;SDS011;62853;46.166;3.640;2022-12-10T06:36:56;92.70;;;41.42;;
74102;SDS011;62853;46.166;3.640;2022-12-10T06:39:21;76.22;;;33.28;;
74102;SDS011;62853;46.166;3.640;2022-12-10T06:41:46;61.90;;;29.00;;
74102;SDS011;62853;46.166;3.640;2022-12-10T06:44:12;80.07;;;35.88;;
74102;SDS011;62853;46.166;3.640;2022-12-10T06:46:38;66.07;;;29.55;;
74102;SDS011;62853;46.166;3.640;2022-12-10T06:49:05;60.13;;;26.63;;
74102;SDS011;62853;46.166;3.640;2022-12-10T06:51:30;78.57;;;32.35;;
74102;SDS011;62853;46.166;3.640;2022-12-10T06:53:56;63.97;;;30.27;;
74102;SDS011;62853;46.166;3.640;2022-12-10T06:56:22;67.88;;;29.08;;
74102;SDS011;62853;46.166;3.640;2022-12-10T06:58:47;86.15;;;35.63;;
74102;SDS011;62853;46.166;3.640;2022-12-10T07:03:49;68.72;;;31.17;;
74102;SDS011;62853;46.166;3.640;2022-12-10T07:06:16;72.22;;;33.42;;
74102;SDS011;62853;46.166;3.640;2022-12-10T07:08:41;83.78;;;37.47;;
74102;SDS011;62853;46.166;3.640;2022-12-10T07:11:08;66.65;;;28.90;;
74102;SDS011;62853;46.166;3.640;2022-12-10T07:13:36;67.72;;;28.13;;
74102;SDS011;62853;46.166;3.640;2022-12-10T07:16:01;71.25;;;29.13;;
74102;SDS011;62853;46.166;3.640;2022-12-10T07:18:27;64.70;;;29.30;;
74102;SDS011;62853;46.166;3.640;2022-12-10T07:20:53;71.38;;;29.15;;
74102;SDS011;62853;46.166;3.640;2022-12-10T07:23:18;91.55;;;37.80;;
74102;SDS011;62853;46.166;3.640;2022-12-10T07:25:44;74.47;;;32.10;;
74102;SDS011;62853;46.166;3.640;2022-12-10T07:28:09;70.47;;;29.92;;
74102;SDS011;62853;46.166;3.640;2022-12-10T07:30:35;86.72;;;36.15;;
74102;SDS011;62853;46.166;3.640;2022-12-10T07:33:00;81.60;;;32.70;;
74102;SDS011;62853;46.166;3.640;2022-12-10T07:35:26;73.10;;;30.02;;
74102;SDS011;62853;46.166;3.640;2022-12-10T07:37:51;82.55;;;32.40;;
74102;SDS011;62853;46.166;3.640;2022-12-10T07:40:16;93.43;;;36.50;;
74102;SDS011;62853;46.166;3.640;2022-12-10T07:42:42;82.80;;;31.63;;
74102;SDS011;62853;46.166;3.640;2022-12-10T07:45:07;91.47;;;36.28;;
74102;SDS011;62853;46.166;3.640;2022-12-10T07:47:37;75.57;;;32.47;;
74102;SDS011;62853;46.166;3.640;2022-12-10T07:50:04;69.15;;;29.17;;
74102;SDS011;62853;46.166;3.640;2022-12-10T07:52:30;72.40;;;28.42;;
74102;SDS011;62853;46.166;3.640;2022-12-10T07:54:55;70.10;;;28.48;;
74102;SDS011;62853;46.166;3.640;2022-12-10T07:57:20;73.65;;;29.25;;
74102;SDS011;62853;46.166;3.640;2022-12-10T07:59:46;82.38;;;31.52;;
74102;SDS011;62853;46.166;3.640;2022-12-10T08:02:11;99.90;;;39.03;;
74102;SDS011;62853;46.166;3.640;2022-12-10T08:04:37;81.90;;;32.38;;
74102;SDS011;62853;46.166;3.640;2022-12-10T08:07:02;77.05;;;30.70;;
74102;SDS011;62853;46.166;3.640;2022-12-10T08:09:28;96.05;;;36.95;;
74102;SDS011;62853;46.166;3.640;2022-12-10T08:11:53;80.22;;;31.63;;
74102;SDS011;62853;46.166;3.640;2022-12-10T08:14:19;79.20;;;29.85;;
74102;SDS011;62853;46.166;3.640;2022-12-10T08:16:44;79.47;;;31.95;;
74102;SDS011;62853;46.166;3.640;2022-12-10T08:19:09;93.13;;;35.50;;
74102;SDS011;62853;46.166;3.640;2022-12-10T08:21:35;81.15;;;31.67;;
74102;SDS011;62853;46.166;3.640;2022-12-10T08:24:00;95.35;;;36.13;;
74102;SDS011;62853;46.166;3.640;2022-12-10T08:26:29;73.82;;;31.73;;
74102;SDS011;62853;46.166;3.640;2022-12-10T08:28:56;75.03;;;31.15;;
74102;SDS011;62853;46.166;3.640;2022-12-10T08:31:22;94.75;;;35.00;;
74102;SDS011;62853;46.166;3.640;2022-12-10T08:33:49;78.00;;;30.60;;
74102;SDS011;62853;46.166;3.640;2022-12-10T08:36:15;68.45;;;28.25;;
74102;SDS011;62853;46.166;3.640;2022-12-10T08:38:42;69.22;;;28.00;;
74102;SDS011;62853;46.166;3.640;2022-12-10T08:41:10;86.05;;;35.40;;
74102;SDS011;62853;46.166;3.640;2022-12-10T08:43:37;63.97;;;26.95;;
74102;SDS011;62853;46.166;3.640;2022-12-10T08:46:03;74.97;;;29.33;;
74102;SDS011;62853;46.166;3.640;2022-12-10T08:48:29;74.18;;;29.90;;
74102;SDS011;62853;46.166;3.640;2022-12-10T08:50:55;67.35;;;27.73;;
74102;SDS011;62853;46.166;3.640;2022-12-10T08:53:21;61.22;;;25.98;;
74102;SDS011;62853;46.166;3.640;2022-12-10T08:55:48;78.75;;;31.17;;
74102;SDS011;62853;46.166;3.640;2022-12-10T08:58:15;67.97;;;26.60;;
74102;SDS011;62853;46.166;3.640;2022-12-10T09:00:41;80.88;;;30.15;;
74102;SDS011;62853;46.166;3.640;2022-12-10T09:03:07;85.47;;;33.67;;
74102;SDS011;62853;46.166;3.640;2022-12-10T09:05:34;89.43;;;37.75;;
74102;SDS011;62853;46.166;3.640;2022-12-10T09:07:59;97.68;;;36.45;;
74102;SDS011;62853;46.166;3.640;2022-12-10T09:10:24;118.25;;;40.97;;
74102;SDS011;62853;46.166;3.640;2022-12-10T09:12:50;99.88;;;36.13;;
74102;SDS011;62853;46.166;3.640;2022-12-10T09:15:15;84.65;;;33.65;;
74102;SDS011;62853;46.166;3.640;2022-12-10T09:17:41;74.30;;;29.40;;
74102;SDS011;62853;46.166;3.640;2022-12-10T09:20:06;87.18;;;33.55;;
74102;SDS011;62853;46.166;3.640;2022-12-10T09:22:32;97.88;;;38.20;;
74102;SDS011;62853;46.166;3.640;2022-12-10T09:25:01;96.00;;;36.78;;
74102;SDS011;62853;46.166;3.640;2022-12-10T09:27:29;85.28;;;31.38;;
74102;SDS011;62853;46.166;3.640;2022-12-10T09:29:55;70.75;;;27.77;;
74102;SDS011;62853;46.166;3.640;2022-12-10T09:32:21;75.68;;;28.48;;
74102;SDS011;62853;46.166;3.640;2022-12-10T09:34:46;69.30;;;26.23;;
74102;SDS011;62853;46.166;3.640;2022-12-10T09:37:11;65.38;;;25.77;;
74102;SDS011;62853;46.166;3.640;2022-12-10T09:39:37;56.40;;;24.20;;
74102;SDS011;62853;46.166;3.640;2022-12-10T09:47:17;68.38;;;27.50;;
74102;SDS011;62853;46.166;3.640;2022-12-10T09:49:49;86.18;;;35.35;;
74102;SDS011;62853;46.166;3.640;2022-12-10T09:52:39;91.32;;;35.28;;
74102;SDS011;62853;46.166;3.640;2022-12-10T09:55:11;72.20;;;29.05;;
